Time,TemperatureF,DewpointF,PressureIn,WindDirection,WindDirectionDegrees,WindSpeedMPH,WindSpeedGustMPH,Humidity,HourlyPrecipIn,Conditions,Clouds,dailyrainin,SoftwareType,DateUTC
2013-09-13 00:10:00,69.5,68.0,29.42,North,11,0.0,0.0,95,0.00,,,0.00,weatherlink.com 1.10,2013-09-13 05:10:00,
2013-09-13 00:25:00,69.3,68.0,29.41,North,11,0.0,0.0,95,0.00,,,0.00,weatherlink.com 1.10,2013-09-13 05:25:00,
2013-09-13 00:40:00,69.0,68.0,29.41,North,11,0.0,0.0,95,0.00,,,0.00,weatherlink.com 1.10,2013-09-13 05:40:00,
2013-09-13 00:55:00,68.8,67.0,29.40,North,11,0.0,0.0,95,0.00,,,0.00,weatherlink.com 1.10,2013-09-13 05:55:00,
2013-09-13 01:10:00,68.6,67.0,29.40,North,11,0.0,0.0,95,0.00,,,0.00,weatherlink.com 1.10,2013-09-13 06:10:00,
2013-09-13 01:25:00,68.5,67.0,29.40,North,11,0.0,0.0,96,0.00,,,0.00,weatherlink.com 1.10,2013-09-13 06:25:00,
2013-09-13 01:40:00,68.2,67.0,29.39,North,11,0.0,0.0,96,0.00,,,0.00,weatherlink.com 1.10,2013-09-13 06:40:00,
2013-09-13 01:55:00,68.1,67.0,29.39,North,11,0.0,0.0,96,0.00,,,0.00,weatherlink.com 1.10,2013-09-13 06:55:00,
2013-09-13 02:10:00,68.1,67.0,29.39,North,11,0.0,0.0,96,0.00,,,0.00,weatherlink.com 1.10,2013-09-13 07:10:00,
2013-09-13 02:25:00,68.1,67.0,29.39,North,11,0.0,0.0,96,0.00,,,0.00,weatherlink.com 1.10,2013-09-13 07:25:00,
2013-09-13 02:40:00,68.0,67.0,29.39,North,11,0.0,0.0,96,0.00,,,0.00,weatherlink.com 1.10,2013-09-13 07:40:00,
2013-09-13 02:55:00,67.9,67.0,29.39,North,11,0.0,0.0,96,0.00,,,0.00,weatherlink.com 1.10,2013-09-13 07:55:00,
2013-09-13 03:10:00,67.8,67.0,29.39,North,11,0.0,0.0,96,0.00,,,0.00,weatherlink.com 1.10,2013-09-13 08:10:00,
2013-09-13 03:25:00,67.5,66.0,29.39,North,11,0.0,0.0,96,0.00,,,0.00,weatherlink.com 1.10,2013-09-13 08:25:00,
2013-09-13 03:40:00,67.2,66.0,29.39,North,11,0.0,0.0,96,0.00,,,0.00,weatherlink.com 1.10,2013-09-13 08:40:00,
2013-09-13 03:55:00,67.1,66.0,29.39,North,11,0.0,0.0,96,0.00,,,0.00,weatherlink.com 1.10,2013-09-13 08:55:00,
2013-09-13 04:10:00,66.9,66.0,29.39,North,11,0.0,0.0,96,0.00,,,0.00,weatherlink.com 1.10,2013-09-13 09:10:00,
2013-09-13 04:26:00,66.8,66.0,29.39,North,11,0.0,0.0,96,0.00,,,0.00,weatherlink.com 1.10,2013-09-13 09:26:00,
2013-09-13 04:41:00,66.6,66.0,29.39,North,11,0.0,0.0,96,0.00,,,0.00,weatherlink.com 1.10,2013-09-13 09:41:00,
2013-09-13 04:56:00,66.5,65.0,29.39,North,11,0.0,0.0,96,0.00,,,0.00,weatherlink.com 1.10,2013-09-13 09:56:00,
2013-09-13 05:11:00,66.3,65.0,29.39,North,11,0.0,0.0,96,0.00,,,0.00,weatherlink.com 1.10,2013-09-13 10:11:00,
2013-09-13 05:26:00,66.1,65.0,29.39,North,11,0.0,0.0,96,0.00,,,0.00,weatherlink.com 1.10,2013-09-13 10:26:00,
2013-09-13 05:41:00,66.1,65.0,29.40,North,11,0.0,0.0,96,0.00,,,0.00,weatherlink.com 1.10,2013-09-13 10:41:00,
2013-09-13 05:56:00,66.0,65.0,29.41,North,11,0.0,0.0,96,0.00,,,0.00,weatherlink.com 1.10,2013-09-13 10:56:00,
2013-09-13 06:11:00,65.8,65.0,29.41,North,11,0.0,0.0,96,0.00,,,0.00,weatherlink.com 1.10,2013-09-13 11:11:00,
2013-09-13 06:26:00,65.8,65.0,29.41,North,11,0.0,0.0,96,0.00,,,0.00,weatherlink.com 1.10,2013-09-13 11:26:00,
2013-09-13 06:41:00,65.9,65.0,29.41,North,11,0.0,0.0,96,0.00,,,0.00,weatherlink.com 1.10,2013-09-13 11:41:00,
2013-09-13 06:56:00,66.2,65.0,29.41,North,11,0.0,0.0,96,0.00,,,0.00,weatherlink.com 1.10,2013-09-13 11:56:00,
2013-09-13 07:11:00,66.9,66.0,29.41,North,11,0.0,0.0,97,0.00,,,0.00,weatherlink.com 1.10,2013-09-13 12:11:00,
2013-09-13 07:26:00,67.4,67.0,29.42,North,11,0.0,0.0,97,0.00,,,0.00,weatherlink.com 1.10,2013-09-13 12:26:00,
2013-09-13 07:41:00,68.2,67.0,29.41,North,11,0.0,0.0,97,0.00,,,0.00,weatherlink.com 1.10,2013-09-13 12:41:00,
2013-09-13 07:56:00,68.7,68.0,29.42,North,11,0.0,0.0,97,0.00,,,0.00,weatherlink.com 1.10,2013-09-13 12:56:00,
2013-09-13 08:11:00,69.3,69.0,29.42,North,11,0.0,0.0,97,0.00,,,0.00,weatherlink.com 1.10,2013-09-13 13:11:00,
2013-09-13 08:26:00,69.9,69.0,29.42,NW,325,0.0,2.0,97,0.00,,,0.00,weatherlink.com 1.10,2013-09-13 13:26:00,
2013-09-13 08:41:00,70.4,70.0,29.42,NNE,17,1.0,3.0,97,0.00,,,0.00,weatherlink.com 1.10,2013-09-13 13:41:00,
2013-09-13 08:56:00,70.6,70.0,29.42,NNW,327,0.0,0.0,97,0.00,,,0.00,weatherlink.com 1.10,2013-09-13 13:56:00,
2013-09-13 09:11:00,70.6,70.0,29.42,NW,318,0.0,3.0,97,0.00,,,0.00,weatherlink.com 1.10,2013-09-13 14:11:00,
2013-09-13 09:26:00,71.3,70.0,29.42,SW,225,0.0,0.0,96,0.00,,,0.00,weatherlink.com 1.10,2013-09-13 14:26:00,
2013-09-13 09:41:00,71.5,70.0,29.42,WSW,242,0.0,0.0,96,0.00,,,0.00,weatherlink.com 1.10,2013-09-13 14:41:00,
2013-09-13 09:56:00,72.2,69.0,29.43,NW,316,0.0,5.0,90,0.00,,,0.00,weatherlink.com 1.10,2013-09-13 14:56:00,
2013-09-13 10:11:00,72.1,70.0,29.43,NNW,338,0.0,6.0,92,0.00,,,0.00,weatherlink.com 1.10,2013-09-13 15:11:00,
2013-09-13 10:26:00,72.4,71.0,29.43,NE,54,0.0,3.0,94,0.00,,,0.00,weatherlink.com 1.10,2013-09-13 15:26:00,
2013-09-13 10:41:00,73.4,70.0,29.42,NNW,338,2.0,6.0,88,0.00,,,0.00,weatherlink.com 1.10,2013-09-13 15:41:00,
2013-09-13 10:56:00,75.7,70.0,29.42,NW,321,3.0,7.0,81,0.00,,,0.00,weatherlink.com 1.10,2013-09-13 15:56:00,
2013-09-13 11:11:00,75.8,69.0,29.42,NW,322,5.0,5.0,80,0.00,,,0.00,weatherlink.com 1.10,2013-09-13 16:11:00,
2013-09-13 11:26:00,75.8,72.0,29.41,NW,315,0.0,3.0,87,0.00,,,0.00,weatherlink.com 1.10,2013-09-13 16:26:00,
2013-09-13 11:41:00,77.1,69.0,29.41,NW,315,2.0,5.0,76,0.00,,,0.00,weatherlink.com 1.10,2013-09-13 16:41:00,
2013-09-13 11:56:00,78.5,68.0,29.41,NW,324,1.0,5.0,70,0.00,,,0.00,weatherlink.com 1.10,2013-09-13 16:56:00,
2013-09-13 12:11:00,79.5,68.0,29.41,NNE,12,0.0,4.0,67,0.00,,,0.00,weatherlink.com 1.10,2013-09-13 17:11:00,
2013-09-13 12:26:00,79.8,69.0,29.40,NW,316,0.0,7.0,70,0.00,,,0.00,weatherlink.com 1.10,2013-09-13 17:26:00,
2013-09-13 12:41:00,79.6,69.0,29.40,West,275,0.0,6.0,69,0.00,,,0.00,weatherlink.com 1.10,2013-09-13 17:41:00,
2013-09-13 12:56:00,80.5,68.0,29.39,NNW,344,0.0,3.0,66,0.00,,,0.00,weatherlink.com 1.10,2013-09-13 17:56:00,
2013-09-13 13:11:00,80.1,67.0,29.38,West,272,3.0,8.0,65,0.00,,,0.00,weatherlink.com 1.10,2013-09-13 18:11:00,
2013-09-13 13:26:00,80.2,68.0,29.38,NW,324,4.0,5.0,67,0.00,,,0.00,weatherlink.com 1.10,2013-09-13 18:26:00,
2013-09-13 13:41:00,80.7,67.0,29.37,NW,319,2.0,6.0,64,0.00,,,0.00,weatherlink.com 1.10,2013-09-13 18:41:00,
2013-09-13 13:56:00,80.4,65.0,29.37,NE,49,1.0,8.0,60,0.00,,,0.00,weatherlink.com 1.10,2013-09-13 18:56:00,
2013-09-13 14:11:00,80.3,68.0,29.36,NNE,21,0.0,6.0,67,0.00,,,0.00,weatherlink.com 1.10,2013-09-13 19:11:00,
2013-09-13 14:26:00,80.2,66.0,29.36,North,5,0.0,6.0,63,0.00,,,0.00,weatherlink.com 1.10,2013-09-13 19:26:00,
2013-09-13 14:41:00,80.5,65.0,29.36,WNW,300,0.0,9.0,60,0.00,,,0.00,weatherlink.com 1.10,2013-09-13 19:41:00,
2013-09-13 14:56:00,80.5,63.0,29.36,NW,309,3.0,11.0,56,0.00,,,0.00,weatherlink.com 1.10,2013-09-13 19:56:00,
2013-09-13 15:12:00,80.4,63.0,29.35,NE,38,2.0,5.0,55,0.00,,,0.00,weatherlink.com 1.10,2013-09-13 20:12:00,
2013-09-13 15:27:00,79.9,63.0,29.35,North,5,2.0,7.0,56,0.00,,,0.00,weatherlink.com 1.10,2013-09-13 20:27:00,
2013-09-13 15:42:00,80.0,59.0,29.35,NW,325,0.0,9.0,49,0.00,,,0.00,weatherlink.com 1.10,2013-09-13 20:42:00,
2013-09-13 15:57:00,79.9,62.0,29.35,NW,311,0.0,8.0,55,0.00,,,0.00,weatherlink.com 1.10,2013-09-13 20:57:00,
2013-09-13 16:12:00,79.7,63.0,29.35,NNW,338,2.0,4.0,57,0.00,,,0.00,weatherlink.com 1.10,2013-09-13 21:12:00,
2013-09-13 16:27:00,79.5,63.0,29.35,North,5,1.0,8.0,57,0.00,,,0.00,weatherlink.com 1.10,2013-09-13 21:27:00,
2013-09-13 16:42:00,79.1,62.0,29.35,NW,311,0.0,5.0,57,0.00,,,0.00,weatherlink.com 1.10,2013-09-13 21:42:00,
2013-09-13 16:57:00,78.4,63.0,29.35,NNW,329,0.0,5.0,59,0.00,,,0.00,weatherlink.com 1.10,2013-09-13 21:57:00,
2013-09-13 17:12:00,77.8,63.0,29.35,NW,306,3.0,5.0,60,0.00,,,0.00,weatherlink.com 1.10,2013-09-13 22:12:00,
2013-09-13 17:27:00,77.6,62.0,29.36,WNW,300,3.0,8.0,58,0.00,,,0.00,weatherlink.com 1.10,2013-09-13 22:27:00,
2013-09-13 17:42:00,76.9,59.0,29.36,NNW,329,1.0,8.0,55,0.00,,,0.00,weatherlink.com 1.10,2013-09-13 22:42:00,
2013-09-13 17:57:00,76.1,61.0,29.36,NW,325,1.0,4.0,59,0.00,,,0.00,weatherlink.com 1.10,2013-09-13 22:57:00,
2013-09-13 18:12:00,75.3,61.0,29.36,NW,311,1.0,10.0,61,0.00,,,0.00,weatherlink.com 1.10,2013-09-13 23:12:00,
2013-09-13 18:27:00,73.8,62.0,29.37,NNE,13,0.0,5.0,66,0.00,,,0.00,weatherlink.com 1.10,2013-09-13 23:27:00,
2013-09-13 18:42:00,72.3,63.0,29.37,NW,317,0.0,1.0,72,0.00,,,0.00,weatherlink.com 1.10,2013-09-13 23:42:00,
2013-09-13 18:57:00,70.4,61.0,29.38,NNW,334,0.0,0.0,72,0.00,,,0.00,weatherlink.com 1.10,2013-09-13 23:57:00,
2013-09-13 19:12:00,68.8,61.0,29.38,NNW,334,0.0,0.0,77,0.00,,,0.00,weatherlink.com 1.10,2013-09-14 00:12:00,
2013-09-13 19:27:00,67.5,60.0,29.38,NNW,334,0.0,0.0,78,0.00,,,0.00,weatherlink.com 1.10,2013-09-14 00:27:00,
2013-09-13 19:42:00,66.4,60.0,29.39,NNW,334,0.0,0.0,81,0.00,,,0.00,weatherlink.com 1.10,2013-09-14 00:42:00,
2013-09-13 19:57:00,65.4,60.0,29.40,NNW,334,0.0,0.0,82,0.00,,,0.00,weatherlink.com 1.10,2013-09-14 00:57:00,
2013-09-13 20:12:00,64.6,59.0,29.41,WNW,296,0.0,0.0,83,0.00,,,0.00,weatherlink.com 1.10,2013-09-14 01:12:00,
2013-09-13 20:27:00,64.0,59.0,29.41,NNW,336,0.0,0.0,83,0.00,,,0.00,weatherlink.com 1.10,2013-09-14 01:27:00,
2013-09-13 20:42:00,63.6,58.0,29.42,NNE,15,0.0,0.0,83,0.00,,,0.00,weatherlink.com 1.10,2013-09-14 01:42:00,
2013-09-13 20:57:00,63.3,58.0,29.42,NNE,15,0.0,0.0,82,0.00,,,0.00,weatherlink.com 1.10,2013-09-14 01:57:00,
2013-09-13 21:12:00,63.1,59.0,29.42,NNE,22,0.0,1.0,85,0.00,,,0.00,weatherlink.com 1.10,2013-09-14 02:12:00,
2013-09-13 21:27:00,62.6,57.0,29.42,NNE,31,0.0,0.0,83,0.00,,,0.00,weatherlink.com 1.10,2013-09-14 02:27:00,
2013-09-13 21:42:00,62.2,57.0,29.43,NNE,31,0.0,0.0,84,0.00,,,0.00,weatherlink.com 1.10,2013-09-14 02:42:00,
2013-09-13 21:57:00,61.9,57.0,29.43,NNE,22,0.0,0.0,84,0.00,,,0.00,weatherlink.com 1.10,2013-09-14 02:57:00,
2013-09-13 22:12:00,61.6,56.0,29.43,NNE,22,0.0,0.0,83,0.00,,,0.00,weatherlink.com 1.10,2013-09-14 03:12:00,
2013-09-13 22:27:00,61.1,57.0,29.43,NNE,22,0.0,0.0,85,0.00,,,0.00,weatherlink.com 1.10,2013-09-14 03:27:00,
2013-09-13 22:42:00,60.8,57.0,29.43,NNE,22,0.0,0.0,86,0.00,,,0.00,weatherlink.com 1.10,2013-09-14 03:42:00,
2013-09-13 22:57:00,60.2,56.0,29.43,NNE,22,0.0,0.0,86,0.00,,,0.00,weatherlink.com 1.10,2013-09-14 03:57:00,
2013-09-13 23:12:00,59.9,56.0,29.43,NNE,22,0.0,0.0,88,0.00,,,0.00,weatherlink.com 1.10,2013-09-14 04:12:00,
2013-09-13 23:27:00,59.7,56.0,29.44,NNE,22,0.0,0.0,88,0.00,,,0.00,weatherlink.com 1.10,2013-09-14 04:27:00,
2013-09-13 23:42:00,59.5,56.0,29.44,NNE,22,0.0,0.0,88,0.00,,,0.00,weatherlink.com 1.10,2013-09-14 04:42:00,
2013-09-13 23:57:00,59.2,56.0,29.44,NNE,22,0.0,0.0,89,0.00,,,0.00,weatherlink.com 1.10,2013-09-14 04:57:00,